Main page
METAR-TAF:

METAR-TAF

Airports :

Uzhhorod International Airport

Uzhhorod, Ukraine

latitude: 48-38-05N, longitude: 022-15-53E, elevation: 117 m

Current weather observation

The report was made 1 hour and 24 minutes ago, at 15:00 UTC
Wind 8 kt from the North/Northwest
Temperature 20°C
Humidity 32%
Pressure 1024 hPa
Visibility 10 km or more

METAR: UKLU 181500Z 34004MPS 9999 NSC 20/03 Q1024 R10/090070 NOSIG

Time: 19:24 (16:24 UTC)

Forecast

The report was made 2 hours and 24 minutes ago, at 14:00 UTC
Forecast valid from 18 at 15 UTC to 18 at 24 UTC
Wind 8 kt from the North/Northwest
Visibility 10 km or more

TAF: UKLU 181400Z 1815/1824 33004MPS 9999 NSC

Weather observations and forecasts of more than 4000 airports (METAR and TAF reports).

The available stations are represented by yellow and red dots on the map.

Hover mouse over dot to see the name of the station.

Then click to see weather observations and forecasts.

To change the map : click on the green buttons with a black cross to zoom in, on the green button with a dash to zoom out, or on the green arrows for adjacent maps.


METAR-TAF: